createdAt,value
2022-12-23T00:00:44.439Z,2.50
2022-12-23T00:03:12.579Z,2.40
2022-12-23T00:05:40.636Z,2.40
2022-12-23T00:08:11.562Z,2.40
2022-12-23T00:10:39.874Z,2.50
2022-12-23T00:13:26.239Z,2.40
2022-12-23T00:16:10.964Z,2.40
2022-12-23T00:18:43.576Z,2.40
2022-12-23T00:21:14.692Z,2.50
2022-12-23T00:23:46.904Z,2.40
2022-12-23T00:26:34.417Z,2.50
2022-12-23T00:29:06.276Z,2.50
2022-12-23T00:31:33.527Z,2.30
2022-12-23T00:34:00.861Z,2.20
2022-12-23T00:36:30.451Z,2.20
2022-12-23T00:39:18.687Z,2.10
2022-12-23T00:42:04.662Z,1.90
2022-12-23T00:44:32.278Z,2.00
2022-12-23T00:47:00.073Z,2.20
2022-12-23T00:49:42.504Z,2.20
2022-12-23T00:52:12.891Z,2.10
2022-12-23T00:54:41.121Z,2.20
2022-12-23T00:57:08.285Z,2.20
2022-12-23T00:59:35.624Z,2.20
2022-12-23T01:02:22.182Z,2.30
2022-12-23T01:05:07.909Z,2.30
2022-12-23T01:07:35.436Z,2.30
2022-12-23T01:10:02.883Z,2.30
2022-12-23T01:12:30.052Z,2.30
2022-12-23T01:14:57.507Z,2.30
2022-12-23T01:17:25.283Z,2.30
2022-12-23T01:19:52.589Z,2.30
2022-12-23T01:22:19.825Z,2.30
2022-12-23T01:24:47.356Z,2.30
2022-12-23T01:27:14.600Z,2.20
2022-12-23T01:29:42.953Z,2.20
2022-12-23T01:32:13.168Z,2.20
2022-12-23T01:34:43.591Z,2.10
2022-12-23T01:37:12.171Z,2.10
2022-12-23T01:39:39.413Z,2.10
2022-12-23T01:42:32.380Z,2.20
2022-12-23T01:45:09.678Z,2.30
2022-12-23T01:47:50.238Z,2.30
2022-12-23T01:50:20.495Z,2.20
2022-12-23T01:53:07.272Z,2.20
2022-12-23T01:55:59.538Z,2.20
2022-12-23T01:58:47.345Z,2.30
2022-12-23T02:01:33.250Z,2.30
2022-12-23T02:04:05.413Z,2.30
2022-12-23T02:06:57.329Z,2.40
2022-12-23T02:09:27.977Z,2.30
2022-12-23T02:12:13.081Z,2.40
2022-12-23T02:15:11.206Z,2.50
2022-12-23T02:17:45.628Z,2.50
2022-12-23T02:20:27.992Z,2.50
2022-12-23T02:23:04.129Z,2.50
2022-12-23T02:25:55.116Z,2.30
2022-12-23T02:29:00.263Z,2.30
2022-12-23T02:31:39.408Z,2.30
2022-12-23T02:34:21.382Z,2.30
2022-12-23T02:37:02.982Z,2.30
2022-12-23T02:39:40.766Z,2.20
2022-12-23T02:42:12.696Z,2.20
2022-12-23T02:44:54.800Z,2.00
2022-12-23T02:47:28.578Z,2.10
2022-12-23T02:50:03.081Z,2.20
2022-12-23T02:52:34.454Z,2.10
2022-12-23T02:55:10.418Z,2.20
2022-12-23T02:57:42.347Z,2.10
2022-12-23T03:00:10.552Z,2.00
2022-12-23T03:02:40.800Z,2.00
2022-12-23T03:05:25.881Z,1.90
2022-12-23T03:07:55.517Z,1.80
2022-12-23T03:10:51.583Z,1.80
2022-12-23T03:13:37.809Z,1.70
2022-12-23T03:16:26.788Z,1.60
2022-12-23T03:19:07.052Z,1.60
2022-12-23T03:21:37.024Z,1.40
2022-12-23T03:24:19.362Z,1.50
2022-12-23T03:27:02.335Z,1.50
2022-12-23T03:29:37.704Z,1.50
2022-12-23T03:32:06.390Z,1.60
2022-12-23T03:34:37.906Z,1.70
2022-12-23T03:37:09.950Z,1.80
2022-12-23T03:39:50.761Z,1.70
2022-12-23T03:42:50.387Z,1.70
2022-12-23T03:45:38.577Z,1.60
2022-12-23T03:48:23.507Z,1.60
2022-12-23T03:50:56.174Z,1.50
2022-12-23T03:53:32.044Z,1.60
2022-12-23T03:56:05.150Z,1.70
2022-12-23T03:58:48.691Z,1.60
2022-12-23T04:01:34.079Z,1.70
2022-12-23T04:04:07.740Z,1.70
2022-12-23T04:06:45.616Z,1.70
2022-12-23T04:09:19.838Z,1.70
2022-12-23T04:11:49.961Z,1.70
2022-12-23T04:14:18.925Z,1.70
2022-12-23T04:16:50.078Z,1.70
2022-12-23T04:19:17.629Z,1.80
2022-12-23T04:21:45.079Z,1.70
2022-12-23T04:24:13.276Z,1.80
2022-12-23T04:26:40.435Z,1.80
2022-12-23T04:29:07.711Z,1.70
2022-12-23T04:31:35.228Z,1.70
2022-12-23T04:34:03.188Z,1.70
2022-12-23T04:36:30.608Z,1.70
2022-12-23T04:38:58.051Z,1.70
2022-12-23T04:41:25.266Z,1.70
2022-12-23T04:43:53.551Z,1.80
2022-12-23T04:46:21.541Z,1.80
2022-12-23T04:48:48.882Z,1.70
2022-12-23T04:51:16.114Z,1.70
2022-12-23T04:53:43.604Z,1.80
2022-12-23T04:56:11.012Z,1.80
2022-12-23T04:58:38.829Z,1.80
2022-12-23T05:01:15.476Z,1.80
2022-12-23T05:03:43.034Z,2.00
2022-12-23T05:06:13.008Z,2.20
2022-12-23T05:08:40.400Z,2.20
2022-12-23T05:11:09.747Z,2.20
2022-12-23T05:13:36.887Z,2.20
2022-12-23T05:16:04.325Z,2.30
2022-12-23T05:18:31.560Z,2.30
2022-12-23T05:20:58.750Z,2.30
2022-12-23T05:23:26.370Z,2.20
2022-12-23T05:25:54.845Z,2.20
2022-12-23T05:28:23.111Z,2.20
2022-12-23T05:30:57.187Z,2.30
2022-12-23T05:33:24.556Z,2.30
2022-12-23T05:35:52.448Z,2.30
2022-12-23T05:38:19.757Z,2.10
2022-12-23T05:40:48.172Z,2.20
2022-12-23T05:43:15.631Z,2.10
2022-12-23T05:45:50.747Z,2.10
2022-12-23T05:48:20.719Z,2.20
2022-12-23T05:50:55.161Z,2.20
2022-12-23T05:53:30.700Z,2.40
2022-12-23T05:55:57.920Z,2.40
2022-12-23T05:58:25.399Z,2.60
2022-12-23T06:00:52.941Z,2.40
2022-12-23T06:03:20.573Z,2.30
2022-12-23T06:05:53.749Z,2.10
2022-12-23T06:08:21.026Z,2.20
2022-12-23T06:10:48.789Z,2.20
2022-12-23T06:13:16.978Z,2.10
2022-12-23T06:15:44.124Z,2.00
2022-12-23T06:18:11.175Z,1.90
2022-12-23T06:20:38.585Z,2.00
2022-12-23T06:23:05.932Z,2.10
2022-12-23T06:25:33.215Z,2.20
2022-12-23T06:28:00.710Z,2.60
2022-12-23T06:30:28.207Z,2.60
2022-12-23T06:32:55.441Z,2.60
2022-12-23T06:35:22.852Z,2.50
2022-12-23T06:37:52.635Z,2.50
2022-12-23T06:40:19.874Z,2.60
2022-12-23T06:42:47.892Z,2.60
2022-12-23T06:45:15.181Z,2.70
2022-12-23T06:47:44.790Z,2.70
2022-12-23T06:50:12.633Z,2.70
2022-12-23T06:52:39.716Z,2.70
2022-12-23T06:55:07.386Z,2.70
2022-12-23T06:57:34.615Z,2.70
2022-12-23T07:00:01.865Z,2.80
2022-12-23T07:02:32.599Z,2.60
2022-12-23T07:04:59.996Z,2.50
2022-12-23T07:07:27.244Z,2.30
2022-12-23T07:09:54.527Z,2.20
2022-12-23T07:12:21.885Z,2.20
2022-12-23T07:14:49.089Z,2.30
2022-12-23T07:17:16.348Z,2.50
2022-12-23T07:19:57.020Z,2.50
2022-12-23T07:22:24.391Z,2.60
2022-12-23T07:24:51.552Z,2.70
2022-12-23T07:27:18.641Z,2.60
2022-12-23T07:29:47.510Z,2.40
2022-12-23T07:32:14.790Z,2.50
2022-12-23T07:34:42.023Z,2.60
2022-12-23T07:37:11.652Z,2.70
2022-12-23T07:39:39.124Z,2.80
2022-12-23T07:42:43.611Z,2.80
2022-12-23T07:44:54.747Z,2.90
2022-12-23T07:47:23.685Z,2.90
2022-12-23T07:49:53.395Z,2.80
2022-12-23T07:52:24.512Z,2.90
2022-12-23T07:54:51.733Z,3.00
2022-12-23T07:57:18.997Z,3.10
2022-12-23T07:59:46.176Z,3.10
2022-12-23T08:02:13.535Z,2.90
2022-12-23T08:04:45.832Z,2.80
2022-12-23T08:07:29.196Z,2.70
2022-12-23T08:09:56.398Z,2.60
2022-12-23T08:12:23.746Z,2.60
2022-12-23T08:14:53.239Z,2.60
2022-12-23T08:17:21.903Z,2.60
2022-12-23T08:19:49.725Z,2.60
2022-12-23T08:22:17.303Z,2.60
2022-12-23T08:24:48.233Z,2.60
2022-12-23T08:27:16.438Z,2.60
2022-12-23T08:29:43.698Z,2.60
2022-12-23T08:32:11.041Z,2.60
2022-12-23T08:34:40.922Z,2.50
2022-12-23T08:37:08.096Z,2.60
2022-12-23T08:39:35.637Z,2.60
2022-12-23T08:42:05.316Z,2.50
2022-12-23T08:44:35.713Z,2.50
2022-12-23T08:47:06.013Z,2.50
2022-12-23T08:49:40.283Z,2.70
2022-12-23T08:52:07.674Z,2.80
2022-12-23T08:54:42.318Z,2.80
2022-12-23T08:57:09.898Z,2.80
2022-12-23T08:59:37.177Z,2.80
2022-12-23T09:02:07.514Z,2.90
2022-12-23T09:04:36.658Z,2.90
2022-12-23T09:07:06.372Z,2.90
2022-12-23T09:09:37.390Z,3.00
2022-12-23T09:12:04.847Z,3.00
2022-12-23T09:14:32.517Z,3.00
2022-12-23T09:17:03.619Z,3.10
2022-12-23T09:19:30.855Z,3.10
2022-12-23T09:21:58.002Z,3.10
2022-12-23T09:24:28.451Z,3.00
2022-12-23T09:26:55.779Z,2.90
2022-12-23T09:29:23.305Z,3.00
2022-12-23T09:32:00.978Z,3.10
2022-12-23T09:34:36.018Z,3.20
2022-12-23T09:37:06.461Z,3.10
2022-12-23T09:39:34.647Z,3.30
2022-12-23T09:42:21.445Z,3.40
2022-12-23T09:45:23.321Z,3.40
2022-12-23T09:48:05.296Z,3.40
2022-12-23T09:50:35.209Z,3.20
2022-12-23T09:53:11.664Z,3.30
2022-12-23T09:56:03.253Z,3.40
2022-12-23T09:58:40.220Z,3.30
2022-12-23T10:01:45.754Z,3.30
2022-12-23T10:04:37.424Z,3.30
2022-12-23T10:07:04.718Z,3.40
2022-12-23T10:09:47.677Z,3.50
2022-12-23T10:12:39.414Z,3.60
2022-12-23T10:15:40.863Z,3.50
2022-12-23T10:18:16.160Z,3.50
2022-12-23T10:20:57.936Z,3.40
2022-12-23T10:23:35.685Z,3.10
2022-12-23T10:26:15.345Z,3.30
2022-12-23T10:28:43.049Z,3.30
2022-12-23T10:31:39.780Z,3.30
2022-12-23T10:34:39.522Z,3.20
2022-12-23T10:37:18.517Z,3.40
2022-12-23T10:40:14.145Z,3.50
2022-12-23T10:42:47.433Z,3.50
2022-12-23T10:45:35.414Z,3.50
2022-12-23T10:48:20.957Z,3.60
2022-12-23T10:51:23.311Z,3.70
2022-12-23T10:54:02.645Z,3.70
2022-12-23T10:56:30.785Z,3.70
2022-12-23T10:59:00.829Z,3.90
2022-12-23T11:01:30.595Z,4.30
2022-12-23T11:04:11.798Z,4.50
2022-12-23T11:07:10.709Z,4.80
2022-12-23T11:09:46.862Z,4.90
2022-12-23T11:12:15.085Z,5.30
2022-12-23T11:14:43.594Z,5.80
2022-12-23T11:17:30.543Z,6.20
2022-12-23T11:20:20.476Z,5.60
2022-12-23T11:22:53.817Z,5.90
2022-12-23T11:25:35.380Z,6.40
2022-12-23T11:28:15.714Z,6.30
2022-12-23T11:31:05.855Z,5.60
2022-12-23T11:33:37.771Z,5.90
2022-12-23T11:36:28.615Z,6.40
2022-12-23T11:39:07.929Z,6.50
2022-12-23T11:41:47.992Z,6.80
2022-12-23T11:44:40.083Z,6.90
2022-12-23T11:47:29.519Z,7.10
2022-12-23T11:50:24.163Z,7.20
2022-12-23T11:52:55.353Z,7.10
2022-12-23T11:55:33.078Z,7.00
2022-12-23T11:58:02.275Z,7.10
2022-12-23T12:00:41.189Z,7.30
2022-12-23T12:03:18.062Z,7.70
2022-12-23T12:05:54.852Z,7.50
2022-12-23T12:08:28.398Z,7.70
2022-12-23T12:11:06.287Z,7.90
2022-12-23T12:13:45.145Z,8.30
2022-12-23T12:16:35.519Z,8.90
2022-12-23T12:19:15.368Z,9.10
2022-12-23T12:21:54.997Z,8.90
2022-12-23T12:24:35.627Z,9.40
2022-12-23T12:27:05.088Z,10.30
2022-12-23T12:29:32.294Z,9.70
2022-12-23T12:32:04.728Z,9.30
2022-12-23T12:34:53.748Z,8.80
2022-12-23T12:37:48.818Z,8.40
2022-12-23T12:40:43.053Z,8.10
2022-12-23T12:43:34.392Z,8.50
2022-12-23T12:46:43.544Z,8.80
2022-12-23T12:49:23.089Z,8.80
2022-12-23T12:52:20.080Z,8.50
2022-12-23T12:54:51.025Z,8.10
2022-12-23T12:57:21.507Z,7.80
2022-12-23T12:59:53.468Z,7.90
2022-12-23T13:02:52.527Z,8.00
2022-12-23T13:05:39.150Z,8.10
2022-12-23T13:08:39.739Z,8.20
2022-12-23T13:11:39.041Z,7.90
2022-12-23T13:14:21.316Z,8.20
2022-12-23T13:17:18.428Z,8.60
2022-12-23T13:19:54.971Z,8.80
2022-12-23T13:22:34.716Z,9.20
2022-12-23T13:25:04.638Z,9.20
2022-12-23T13:27:48.729Z,9.20
2022-12-23T13:30:23.932Z,9.10
2022-12-23T13:33:12.927Z,9.20
2022-12-23T13:36:11.824Z,9.20
2022-12-23T13:39:17.295Z,9.20
2022-12-23T13:41:47.711Z,9.30
2022-12-23T13:44:18.974Z,9.30
2022-12-23T13:47:25.622Z,9.30
2022-12-23T13:50:25.302Z,9.30
2022-12-23T13:53:18.859Z,9.30
2022-12-23T13:55:51.859Z,9.30
2022-12-23T13:58:24.841Z,9.40
2022-12-23T14:01:08.861Z,9.10
2022-12-23T14:03:43.894Z,8.90
2022-12-23T14:06:26.501Z,8.70
2022-12-23T14:08:59.182Z,8.60
2022-12-23T14:11:29.237Z,8.60
2022-12-23T14:14:02.576Z,8.40
2022-12-23T14:17:07.294Z,8.30
2022-12-23T14:20:27.442Z,8.40
2022-12-23T14:23:20.159Z,8.20
2022-12-23T14:26:07.038Z,8.10
2022-12-23T14:28:53.840Z,8.00
2022-12-23T14:31:41.234Z,7.80
2022-12-23T14:34:18.077Z,7.40
2022-12-23T14:37:35.393Z,7.10
2022-12-23T14:40:38.253Z,6.80
2022-12-23T14:43:27.721Z,6.70
2022-12-23T14:46:03.340Z,6.50
2022-12-23T14:49:16.181Z,6.40
2022-12-23T14:51:44.331Z,6.40
2022-12-23T14:54:15.648Z,6.30
2022-12-23T14:57:09.434Z,6.20
2022-12-23T14:59:47.173Z,6.20
2022-12-23T15:02:31.434Z,6.10
2022-12-23T15:04:59.884Z,6.00
2022-12-23T15:07:38.719Z,5.80
2022-12-23T15:10:20.292Z,5.80
2022-12-23T15:12:52.174Z,5.80
2022-12-23T15:15:25.452Z,5.70
2022-12-23T15:18:06.411Z,5.80
2022-12-23T15:20:35.572Z,5.80
2022-12-23T15:23:09.646Z,5.70
2022-12-23T15:25:50.727Z,5.70
2022-12-23T15:28:26.454Z,5.60
2022-12-23T15:30:56.555Z,5.60
2022-12-23T15:34:01.340Z,5.60
2022-12-23T15:36:20.669Z,5.50
2022-12-23T15:38:48.742Z,5.50
2022-12-23T15:41:18.891Z,5.60
2022-12-23T15:43:46.755Z,5.60
2022-12-23T15:46:25.332Z,5.60
2022-12-23T15:48:56.740Z,5.60
2022-12-23T15:54:35.259Z,5.50
2022-12-23T15:57:06.465Z,5.40
2022-12-23T15:59:37.437Z,5.40
2022-12-23T16:02:58.286Z,5.40
2022-12-23T16:05:08.463Z,5.40
2022-12-23T16:07:41.351Z,5.40
2022-12-23T16:10:23.535Z,5.30
2022-12-23T16:12:54.816Z,5.50
2022-12-23T16:15:30.177Z,5.70
2022-12-23T16:18:26.239Z,5.60
2022-12-23T16:20:55.575Z,5.50
2022-12-23T16:23:24.513Z,5.50
2022-12-23T16:25:55.604Z,5.30
2022-12-23T16:28:28.006Z,5.30
2022-12-23T16:30:58.006Z,5.30
2022-12-23T16:33:34.662Z,5.40
2022-12-23T16:36:28.729Z,5.40
2022-12-23T16:39:14.704Z,5.20
2022-12-23T16:41:42.119Z,5.10
2022-12-23T16:44:12.554Z,5.00
2022-12-23T16:46:50.281Z,5.00
2022-12-23T16:49:27.999Z,5.00
2022-12-23T16:51:58.619Z,5.00
2022-12-23T16:54:29.137Z,5.00
2022-12-23T16:56:57.539Z,5.00
2022-12-23T16:59:36.998Z,5.00
2022-12-23T17:02:07.430Z,5.00
2022-12-23T17:04:34.675Z,5.00
2022-12-23T17:07:01.973Z,5.00
2022-12-23T17:09:29.273Z,4.90
2022-12-23T17:11:56.725Z,4.80
2022-12-23T17:14:28.253Z,4.70
2022-12-23T17:16:57.701Z,4.70
2022-12-23T17:19:32.355Z,4.70
2022-12-23T17:22:05.280Z,4.70
2022-12-23T17:24:33.739Z,4.70
2022-12-23T17:29:57.533Z,4.70
2022-12-23T17:32:27.850Z,4.60
2022-12-23T17:34:56.692Z,4.50
2022-12-23T17:37:24.500Z,4.50
2022-12-23T17:39:57.669Z,4.50
2022-12-23T17:42:27.570Z,4.50
2022-12-23T17:44:56.089Z,4.60
2022-12-23T17:47:25.214Z,4.50
2022-12-23T17:49:52.415Z,4.50
2022-12-23T17:52:22.690Z,4.40
2022-12-23T17:54:51.261Z,4.40
2022-12-23T17:57:24.696Z,4.40
2022-12-23T17:59:53.986Z,4.40
2022-12-23T18:02:32.399Z,4.40
2022-12-23T18:05:00.261Z,4.50
2022-12-23T18:07:31.318Z,4.40
2022-12-23T18:10:02.795Z,4.40
2022-12-23T18:12:39.786Z,4.30
2022-12-23T18:15:19.677Z,4.40
2022-12-23T18:17:47.254Z,4.40
2022-12-23T18:20:19.229Z,4.40
2022-12-23T18:22:51.757Z,4.50
2022-12-23T18:25:24.089Z,4.50
2022-12-23T18:27:54.971Z,4.50
2022-12-23T18:30:23.728Z,4.50
2022-12-23T18:32:54.662Z,4.40
2022-12-23T18:35:34.662Z,4.40
2022-12-23T18:38:09.102Z,4.30
2022-12-23T18:40:40.190Z,4.30
2022-12-23T18:43:10.768Z,4.30
2022-12-23T18:45:47.808Z,4.30
2022-12-23T18:48:19.857Z,4.20
2022-12-23T18:50:47.225Z,4.20
2022-12-23T18:53:23.523Z,4.10
2022-12-23T18:55:52.467Z,4.00
2022-12-23T18:58:25.942Z,4.10
2022-12-23T19:00:53.790Z,4.10
2022-12-23T19:03:25.024Z,4.10
2022-12-23T19:05:53.776Z,4.10
2022-12-23T19:08:28.006Z,4.10
2022-12-23T19:10:56.084Z,4.10
2022-12-23T19:13:25.061Z,4.20
2022-12-23T19:15:52.727Z,4.20
2022-12-23T19:18:23.355Z,4.10
2022-12-23T19:20:50.491Z,4.10
2022-12-23T19:23:25.698Z,4.00
2022-12-23T19:25:58.363Z,4.00
2022-12-23T19:28:25.840Z,4.10
2022-12-23T19:30:53.305Z,4.10
2022-12-23T19:33:20.600Z,4.20
2022-12-23T19:35:53.489Z,4.20
2022-12-23T19:38:21.229Z,4.10
2022-12-23T19:40:58.394Z,4.10
2022-12-23T19:43:25.577Z,4.00
2022-12-23T19:46:05.673Z,3.90
2022-12-23T19:48:33.561Z,3.80
2022-12-23T19:51:07.074Z,3.90
2022-12-23T19:53:35.009Z,3.70
2022-12-23T19:56:13.605Z,3.60
2022-12-23T19:58:43.173Z,3.70
2022-12-23T20:01:12.097Z,3.80
2022-12-23T20:03:40.515Z,3.90
2022-12-23T20:06:20.427Z,3.90
2022-12-23T20:08:49.143Z,3.90
2022-12-23T20:11:19.623Z,3.90
2022-12-23T20:13:47.093Z,3.80
2022-12-23T20:16:14.405Z,3.80
2022-12-23T20:18:41.822Z,3.80
2022-12-23T20:21:09.311Z,3.70
2022-12-23T20:23:37.569Z,3.80
2022-12-23T20:26:05.645Z,3.80
2022-12-23T20:28:38.575Z,3.70
2022-12-23T20:31:27.818Z,3.70
2022-12-23T20:33:57.035Z,3.70
2022-12-23T20:36:27.722Z,3.60
2022-12-23T20:38:57.641Z,3.50
2022-12-23T20:41:27.570Z,3.50
2022-12-23T20:46:49.243Z,3.60
2022-12-23T20:49:16.454Z,3.60
2022-12-23T20:51:43.688Z,3.60
2022-12-23T20:54:13.678Z,3.60
2022-12-23T20:56:43.759Z,3.50
2022-12-23T20:59:10.854Z,3.50
2022-12-23T21:01:43.407Z,3.50
2022-12-23T21:04:13.360Z,3.60
2022-12-23T21:06:43.597Z,3.70
2022-12-23T21:09:14.690Z,3.70
2022-12-23T21:11:43.851Z,3.70
2022-12-23T21:14:11.395Z,3.70
2022-12-23T21:16:39.481Z,3.60
2022-12-23T21:19:09.701Z,3.40
2022-12-23T21:21:36.865Z,3.40
2022-12-23T21:24:05.267Z,3.50
2022-12-23T21:26:34.047Z,3.40
2022-12-23T21:29:04.063Z,3.30
2022-12-23T21:31:38.157Z,3.40
2022-12-23T21:34:15.734Z,3.40
2022-12-23T21:36:43.556Z,3.30
2022-12-23T21:39:18.156Z,3.30
2022-12-23T21:41:46.045Z,3.30
2022-12-23T21:44:16.192Z,3.60
2022-12-23T21:46:43.669Z,3.50
2022-12-23T21:49:11.547Z,3.40
2022-12-23T21:51:42.314Z,3.30
2022-12-23T21:54:11.291Z,3.10
2022-12-23T21:56:39.541Z,3.10
2022-12-23T21:59:11.750Z,3.10
2022-12-23T22:01:39.864Z,3.00
2022-12-23T22:04:07.293Z,2.90
2022-12-23T22:06:40.617Z,2.90
2022-12-23T22:09:08.532Z,2.90
2022-12-23T22:11:37.500Z,3.00
2022-12-23T22:14:09.986Z,3.10
2022-12-23T22:16:38.051Z,3.10
2022-12-23T22:19:08.874Z,3.00
2022-12-23T22:21:37.470Z,3.00
2022-12-23T22:24:05.429Z,3.00
2022-12-23T22:26:33.369Z,2.90
2022-12-23T22:29:03.404Z,2.80
2022-12-23T22:31:49.507Z,2.90
2022-12-23T22:34:19.770Z,3.00
2022-12-23T22:36:47.193Z,2.90
2022-12-23T22:39:20.607Z,3.00
2022-12-23T22:41:52.109Z,3.00
2022-12-23T22:44:20.048Z,3.00
2022-12-23T22:46:48.403Z,3.00
2022-12-23T22:49:16.297Z,3.00
2022-12-23T22:51:44.592Z,3.00
2022-12-23T22:54:11.927Z,2.90
2022-12-23T22:56:39.170Z,2.80
2022-12-23T22:59:06.357Z,2.80
2022-12-23T23:01:35.597Z,2.90
2022-12-23T23:04:04.583Z,3.20
2022-12-23T23:06:40.007Z,3.10
2022-12-23T23:09:09.536Z,2.90
2022-12-23T23:11:36.619Z,2.70
2022-12-23T23:14:04.485Z,2.60
2022-12-23T23:16:32.004Z,2.60
2022-12-23T23:19:00.028Z,2.50
2022-12-23T23:21:27.373Z,2.50
2022-12-23T23:23:54.621Z,2.50
2022-12-23T23:26:26.715Z,2.60
2022-12-23T23:28:54.958Z,2.70
2022-12-23T23:34:09.335Z,2.70
2022-12-23T23:36:36.534Z,2.60
2022-12-23T23:39:03.693Z,2.60
2022-12-23T23:41:30.993Z,2.50
2022-12-23T23:43:58.211Z,2.40
2022-12-23T23:46:25.366Z,2.40
2022-12-23T23:48:52.750Z,2.40
2022-12-23T23:51:19.974Z,2.40
2022-12-23T23:53:47.092Z,2.40
2022-12-23T23:56:15.794Z,2.40
2022-12-23T23:58:45.932Z,2.30
